Terminal Aerodrome Forecast
Issued by NWS

Home | Current Version | Previous Version | Text Only | Print | Product List | Glossary On
Versions: 1 2 3 4 5 6 7 8 9 10 11 12 13 14 15 16
000
FTUS46 KMFR 232320
TAFRBG
TAF
KRBG 232320Z 2400/2424 VRB03KT P6SM SCT050 SCT250
     FM240800 00000KT 1SM BR OVC005
     FM241000 00000KT 1/4SM FG VV002
     FM241700 VRB03KT P6SM SCT002 OVC050
     FM242000 18010KT P6SM OVC040=

USA.gov is the U.S. government's official web portal to all federal, state and local government web resources and services.